Time;durP1;ratioP1;P1;durP2;ratioP2;P2;SDS_P1;SDS_P2;PMS_P1;PMS_P2;Temp;Humidity;BMP_temperature;BMP_pressure;BME280_temperature;BME280_humidity;BME280_pressure;Samples;Min_cycle;Max_cycle;Signal;HPM_P1;HPM_P2
2023/06/22 00:04:04;;;;;;;11.93;7.95;;;;;;;;;;10491190;28;20024;-59
2023/06/22 00:09:06;;;;;;;11.90;7.85;;;;;;;;;;10491910;28;20029;-59
2023/06/22 00:14:07;;;;;;;10.65;8.35;;;;;;;;;;10491661;28;20051;-60
2023/06/22 00:19:10;;;;;;;14.68;9.25;;;;;;;;;;10492387;28;20054;-59
2023/06/22 00:24:11;;;;;;;12.63;8.98;;;;;;;;;;10492113;28;20036;-59
2023/06/22 00:29:11;;;;;;;9.93;8.82;;;;;;;;;;10491637;28;20044;-59
2023/06/22 00:34:12;;;;;;;13.82;9.75;;;;;;;;;;10491299;28;20048;-59
2023/06/22 00:39:13;;;;;;;20.30;8.88;;;;;;;;;;10491679;28;20032;-59
2023/06/22 00:44:13;;;;;;;14.55;9.77;;;;;;;;;;10491011;28;20033;-59
2023/06/22 00:49:14;;;;;;;13.93;9.35;;;;;;;;;;10492143;28;20036;-59
2023/06/22 00:54:15;;;;;;;14.10;9.63;;;;;;;;;;10493661;28;20078;-59
2023/06/22 00:59:17;;;;;;;13.73;10.45;;;;;;;;;;10490968;28;20040;-58
2023/06/22 01:04:18;;;;;;;12.75;9.98;;;;;;;;;;10491603;28;20028;-58
2023/06/22 01:09:32;;;;;;;13.88;10.23;;;;;;;;;;10490725;28;20549;-59
2023/06/22 01:14:52;;;;;;;13.85;10.57;;;;;;;;;;10489089;28;20039;-59
2023/06/22 01:19:55;;;;;;;17.05;11.75;;;;;;;;;;10510051;28;20051;-60
2023/06/22 01:25:20;;;;;;;13.43;10.48;;;;;;;;;;10514261;28;20046;-60
2023/06/22 01:30:24;;;;;;;13.77;10.23;;;;;;;;;;10496299;28;20049;-59
2023/06/22 01:35:26;;;;;;;14.55;10.88;;;;;;;;;;10491560;28;20029;-59
2023/06/22 01:40:28;;;;;;;12.27;10.10;;;;;;;;;;10495623;28;20506;-60
2023/06/22 01:45:28;;;;;;;12.75;10.60;;;;;;;;;;10513141;28;20024;-59
2023/06/22 01:50:29;;;;;;;15.07;10.77;;;;;;;;;;10497126;28;20036;-59
2023/06/22 01:55:30;;;;;;;16.17;10.35;;;;;;;;;;10504857;28;20023;-59
2023/06/22 02:00:38;;;;;;;16.55;10.65;;;;;;;;;;10502034;28;20027;-58
2023/06/22 02:05:47;;;;;;;14.50;12.23;;;;;;;;;;10485468;28;20025;-59
2023/06/22 02:10:50;;;;;;;13.75;10.88;;;;;;;;;;10493487;28;20244;-59
2023/06/22 02:15:51;;;;;;;14.27;10.00;;;;;;;;;;10477936;28;20037;-61
2023/06/22 02:20:52;;;;;;;15.70;11.98;;;;;;;;;;10488952;28;20040;-60
2023/06/22 02:25:53;;;;;;;15.88;10.02;;;;;;;;;;10471559;28;20119;-59
2023/06/22 02:30:53;;;;;;;13.20;11.10;;;;;;;;;;10480613;28;20045;-59
2023/06/22 02:35:54;;;;;;;12.25;10.85;;;;;;;;;;10458505;28;20040;-60
2023/06/22 02:40:54;;;;;;;15.55;12.35;;;;;;;;;;10471137;28;20111;-60
2023/06/22 02:45:55;;;;;;;12.98;10.98;;;;;;;;;;10469605;28;20149;-59
2023/06/22 02:50:56;;;;;;;17.02;11.73;;;;;;;;;;10484329;28;20025;-60
2023/06/22 02:55:56;;;;;;;12.45;11.18;;;;;;;;;;10470853;28;20523;-62
2023/06/22 03:00:57;;;;;;;14.98;12.20;;;;;;;;;;10493121;28;20020;-61
2023/06/22 03:05:57;;;;;;;16.88;12.18;;;;;;;;;;10483133;28;20017;-60
2023/06/22 03:10:58;;;;;;;14.85;11.68;;;;;;;;;;10494910;28;20043;-60
2023/06/22 03:15:59;;;;;;;15.77;11.00;;;;;;;;;;10461650;28;20032;-60
2023/06/22 03:20:59;;;;;;;22.00;11.60;;;;;;;;;;10468340;28;20103;-60
2023/06/22 03:26:01;;;;;;;16.10;11.60;;;;;;;;;;10474672;28;20031;-60
2023/06/22 03:31:03;;;;;;;18.52;11.23;;;;;;;;;;10493317;28;20431;-60
2023/06/22 03:36:04;;;;;;;14.30;10.82;;;;;;;;;;10462659;28;20271;-60
2023/06/22 03:41:04;;;;;;;18.20;11.27;;;;;;;;;;10471263;28;20186;-60
2023/06/22 03:46:05;;;;;;;16.77;11.77;;;;;;;;;;10465763;28;20480;-60
2023/06/22 03:51:06;;;;;;;14.45;11.05;;;;;;;;;;10482673;28;20151;-60
2023/06/22 03:56:07;;;;;;;14.77;11.55;;;;;;;;;;10492323;28;20024;-59
2023/06/22 04:01:11;;;;;;;13.85;11.02;;;;;;;;;;10491492;28;20406;-59
2023/06/22 04:06:11;;;;;;;14.32;11.32;;;;;;;;;;10473706;28;20106;-59
2023/06/22 04:11:12;;;;;;;15.68;11.13;;;;;;;;;;10479358;28;20366;-59
2023/06/22 04:16:12;;;;;;;14.15;11.45;;;;;;;;;;10476072;28;20380;-59
2023/06/22 04:21:14;;;;;;;20.10;11.20;;;;;;;;;;10491241;28;20163;-59
2023/06/22 04:26:14;;;;;;;17.35;12.05;;;;;;;;;;10472792;28;20036;-60
2023/06/22 04:31:15;;;;;;;15.00;12.75;;;;;;;;;;10473222;28;20051;-60
2023/06/22 04:36:16;;;;;;;16.95;11.23;;;;;;;;;;10491407;28;20047;-60
2023/06/22 04:41:23;;;;;;;17.88;11.10;;;;;;;;;;10473586;28;20017;-60
2023/06/22 04:46:24;;;;;;;14.95;10.75;;;;;;;;;;10459466;28;20056;-60
2023/06/22 04:51:30;;;;;;;16.55;11.57;;;;;;;;;;10464495;28;20037;-60
2023/06/22 04:56:31;;;;;;;17.77;11.23;;;;;;;;;;10500395;28;20040;-60
2023/06/22 05:01:32;;;;;;;13.48;10.70;;;;;;;;;;10502699;28;20009;-58
2023/06/22 05:06:33;;;;;;;15.38;10.45;;;;;;;;;;10508174;28;20035;-59
2023/06/22 05:11:34;;;;;;;13.80;10.65;;;;;;;;;;10476733;28;20029;-58
2023/06/22 05:16:34;;;;;;;13.43;11.38;;;;;;;;;;10504031;28;20033;-59
2023/06/22 05:21:35;;;;;;;21.25;10.82;;;;;;;;;;10492829;28;20469;-61
2023/06/22 05:26:35;;;;;;;19.60;10.93;;;;;;;;;;10487768;28;20032;-61
2023/06/22 05:31:36;;;;;;;15.77;10.18;;;;;;;;;;10502302;28;20067;-62
2023/06/22 05:36:37;;;;;;;15.30;10.55;;;;;;;;;;10503313;28;20029;-61
2023/06/22 05:41:37;;;;;;;18.08;11.02;;;;;;;;;;10502419;28;20423;-59
2023/06/22 05:46:49;;;;;;;19.95;12.15;;;;;;;;;;10495429;28;20025;-59
2023/06/22 05:51:50;;;;;;;21.55;11.98;;;;;;;;;;10489051;28;20024;-60
2023/06/22 05:56:51;;;;;;;21.23;11.25;;;;;;;;;;10499912;28;20025;-61
2023/06/22 06:01:53;;;;;;;18.35;11.93;;;;;;;;;;10498864;28;20059;-62
2023/06/22 06:06:54;;;;;;;20.23;10.77;;;;;;;;;;10483284;28;20024;-58
2023/06/22 06:11:54;;;;;;;33.42;11.70;;;;;;;;;;10465846;28;20024;-65
2023/06/22 06:16:55;;;;;;;18.25;10.35;;;;;;;;;;10486081;28;20028;-60
2023/06/22 06:21:55;;;;;;;17.35;10.57;;;;;;;;;;10489848;28;20024;-58
2023/06/22 06:26:56;;;;;;;22.52;11.40;;;;;;;;;;10487017;28;20074;-61
2023/06/22 06:31:57;;;;;;;16.75;10.02;;;;;;;;;;10494884;28;20049;-59
2023/06/22 06:36:58;;;;;;;16.90;11.13;;;;;;;;;;10494117;28;20476;-60
2023/06/22 06:41:58;;;;;;;35.97;10.95;;;;;;;;;;10493914;28;20162;-59
2023/06/22 06:46:59;;;;;;;16.33;11.30;;;;;;;;;;10493753;28;20082;-59
2023/06/22 06:52:00;;;;;;;16.23;10.73;;;;;;;;;;10493517;28;20036;-59
2023/06/22 06:57:02;;;;;;;18.50;10.45;;;;;;;;;;10493578;28;20025;-60
2023/06/22 07:02:04;;;;;;;17.85;11.05;;;;;;;;;;10484686;28;20036;-59
2023/06/22 07:07:05;;;;;;;21.45;11.82;;;;;;;;;;10465879;28;20094;-59
2023/06/22 07:12:06;;;;;;;21.00;10.82;;;;;;;;;;10474030;28;20051;-59
2023/06/22 07:17:07;;;;;;;15.15;10.75;;;;;;;;;;10480828;28;20039;-61
2023/06/22 07:22:07;;;;;;;15.63;10.45;;;;;;;;;;10479013;28;20525;-59
2023/06/22 07:27:11;;;;;;;15.65;9.98;;;;;;;;;;10455993;28;20112;-59
2023/06/22 07:32:11;;;;;;;18.75;11.10;;;;;;;;;;10468539;28;20080;-59
2023/06/22 07:37:12;;;;;;;16.40;11.32;;;;;;;;;;10468538;28;20469;-59
2023/06/22 07:42:18;;;;;;;16.35;10.57;;;;;;;;;;10467682;28;20389;-59
2023/06/22 07:47:19;;;;;;;17.90;11.32;;;;;;;;;;10454751;28;20032;-59
2023/06/22 07:52:20;;;;;;;16.50;10.85;;;;;;;;;;10455235;28;20032;-59
2023/06/22 07:57:21;;;;;;;15.10;10.68;;;;;;;;;;10456606;28;20024;-59
2023/06/22 08:02:22;;;;;;;19.08;11.98;;;;;;;;;;10467628;28;20025;-65
2023/06/22 08:07:22;;;;;;;16.73;11.13;;;;;;;;;;10481580;28;20054;-60
2023/06/22 08:12:23;;;;;;;16.73;10.90;;;;;;;;;;10474603;28;20032;-66
2023/06/22 08:17:24;;;;;;;19.38;11.18;;;;;;;;;;10458914;28;20468;-64
2023/06/22 08:22:25;;;;;;;18.40;10.93;;;;;;;;;;10463033;28;20079;-65
2023/06/22 08:27:28;;;;;;;16.63;11.35;;;;;;;;;;10466128;28;20095;-66
2023/06/22 08:32:29;;;;;;;19.45;11.00;;;;;;;;;;10466685;28;20044;-66
2023/06/22 08:37:30;;;;;;;14.93;11.82;;;;;;;;;;10454946;28;20082;-66
2023/06/22 08:42:31;;;;;;;17.40;11.35;;;;;;;;;;10480653;28;20403;-67
2023/06/22 08:47:32;;;;;;;16.73;11.32;;;;;;;;;;10477742;28;20033;-63
2023/06/22 08:52:32;;;;;;;17.83;11.25;;;;;;;;;;10478028;28;20078;-67
2023/06/22 08:57:33;;;;;;;15.98;10.82;;;;;;;;;;10452159;28;20044;-63
2023/06/22 09:02:34;;;;;;;18.77;11.27;;;;;;;;;;10486032;28;20028;-66
2023/06/22 09:07:34;;;;;;;18.75;11.02;;;;;;;;;;10482597;28;20179;-66
2023/06/22 09:12:37;;;;;;;19.35;10.55;;;;;;;;;;10472082;28;20043;-64
2023/06/22 09:17:38;;;;;;;17.08;11.38;;;;;;;;;;10460702;28;20085;-65
2023/06/22 09:22:38;;;;;;;24.15;10.25;;;;;;;;;;10472277;28;20021;-64
2023/06/22 09:27:39;;;;;;;13.32;9.95;;;;;;;;;;10466231;28;20401;-65
2023/06/22 09:32:40;;;;;;;16.35;9.88;;;;;;;;;;10453134;28;20048;-60
2023/06/22 09:37:40;;;;;;;13.88;9.48;;;;;;;;;;10464915;28;20491;-59
2023/06/22 09:42:41;;;;;;;13.05;9.68;;;;;;;;;;10463482;28;20036;-59
2023/06/22 09:47:42;;;;;;;15.18;9.80;;;;;;;;;;10496001;28;20025;-58
2023/06/22 09:52:44;;;;;;;10.55;8.85;;;;;;;;;;10471525;28;20039;-59
2023/06/22 09:57:45;;;;;;;15.68;9.52;;;;;;;;;;10461048;28;20036;-58
2023/06/22 10:02:46;;;;;;;16.05;9.77;;;;;;;;;;10465267;28;20086;-59
2023/06/22 10:07:47;;;;;;;14.43;9.68;;;;;;;;;;10464447;28;20031;-58
2023/06/22 10:12:57;;;;;;;12.73;9.27;;;;;;;;;;10473846;28;20385;-60
2023/06/22 10:17:57;;;;;;;13.52;9.00;;;;;;;;;;10495599;28;20039;-58
2023/06/22 10:22:58;;;;;;;16.55;9.02;;;;;;;;;;10470286;28;20036;-60
2023/06/22 10:27:59;;;;;;;17.50;9.57;;;;;;;;;;10463756;28;20034;-58
2023/06/22 10:32:59;;;;;;;14.18;8.68;;;;;;;;;;10477584;28;20049;-58
2023/06/22 10:38:00;;;;;;;13.82;9.63;;;;;;;;;;10464478;28;20028;-58
2023/06/22 10:43:01;;;;;;;16.52;9.80;;;;;;;;;;10458576;28;20087;-58
2023/06/22 10:48:01;;;;;;;11.55;8.65;;;;;;;;;;10462784;28;20020;-59
2023/06/22 10:53:02;;;;;;;15.38;9.57;;;;;;;;;;10466336;28;20079;-59
2023/06/22 10:58:02;;;;;;;10.85;8.63;;;;;;;;;;10458014;28;20393;-60
2023/06/22 11:03:03;;;;;;;12.75;8.15;;;;;;;;;;10464066;28;20438;-59
2023/06/22 11:08:04;;;;;;;13.75;8.70;;;;;;;;;;10470122;28;20381;-59
2023/06/22 11:13:05;;;;;;;13.05;8.57;;;;;;;;;;10469665;28;20104;-59
2023/06/22 11:18:07;;;;;;;12.70;8.60;;;;;;;;;;10480669;28;20060;-58
2023/06/22 11:23:07;;;;;;;14.13;8.30;;;;;;;;;;10468194;28;20101;-58
2023/06/22 11:28:09;;;;;;;12.25;8.80;;;;;;;;;;10477550;28;20073;-59
2023/06/22 11:33:09;;;;;;;9.98;8.52;;;;;;;;;;10481036;28;20044;-59
2023/06/22 11:38:10;;;;;;;13.10;9.43;;;;;;;;;;10467577;28;20388;-58
2023/06/22 11:43:10;;;;;;;12.70;8.93;;;;;;;;;;10479156;28;20025;-59
2023/06/22 11:48:11;;;;;;;9.43;7.90;;;;;;;;;;10475006;28;20032;-58
2023/06/22 11:53:12;;;;;;;15.45;8.90;;;;;;;;;;10489530;28;20033;-60
2023/06/22 11:58:12;;;;;;;19.60;9.02;;;;;;;;;;10491255;28;20024;-65
2023/06/22 12:03:14;;;;;;;10.70;8.82;;;;;;;;;;10493434;28;20480;-59
2023/06/22 12:08:15;;;;;;;17.60;9.48;;;;;;;;;;10466535;28;20032;-59
2023/06/22 12:13:15;;;;;;;15.30;8.68;;;;;;;;;;10470423;28;20051;-59
2023/06/22 12:18:16;;;;;;;14.52;8.75;;;;;;;;;;10465853;28;20021;-59
2023/06/22 12:23:17;;;;;;;15.85;8.52;;;;;;;;;;10467686;28;20045;-64
2023/06/22 12:28:17;;;;;;;14.95;9.10;;;;;;;;;;10465579;28;20036;-65
2023/06/22 12:33:18;;;;;;;20.25;9.73;;;;;;;;;;10457302;28;20052;-64
2023/06/22 12:38:18;;;;;;;19.30;8.88;;;;;;;;;;10456658;28;20025;-65
2023/06/22 12:43:19;;;;;;;14.90;8.65;;;;;;;;;;10467536;28;20040;-66
2023/06/22 12:48:20;;;;;;;15.32;8.80;;;;;;;;;;10462923;28;20028;-61
2023/06/22 12:53:22;;;;;;;17.20;8.95;;;;;;;;;;10464834;28;20097;-65
2023/06/22 12:58:23;;;;;;;11.52;8.95;;;;;;;;;;10489636;28;20053;-67
2023/06/22 13:03:25;;;;;;;10.10;8.23;;;;;;;;;;10492120;28;20047;-67
2023/06/22 13:08:26;;;;;;;10.27;7.53;;;;;;;;;;10466904;28;20027;-65
2023/06/22 13:13:29;;;;;;;19.63;8.95;;;;;;;;;;10467927;28;20480;-62
2023/06/22 13:18:30;;;;;;;20.27;9.80;;;;;;;;;;10474485;28;20025;-64
2023/06/22 13:23:31;;;;;;;14.68;9.10;;;;;;;;;;10486501;28;20043;-61
2023/06/22 13:28:31;;;;;;;18.77;9.57;;;;;;;;;;10472560;28;20047;-65
2023/06/22 13:33:32;;;;;;;16.10;9.45;;;;;;;;;;10474468;28;20040;-64
2023/06/22 13:38:38;;;;;;;192.43;16.30;;;;;;;;;;10495262;28;20032;-65
2023/06/22 13:43:38;;;;;;;58.25;10.35;;;;;;;;;;10493836;28;20028;-60
2023/06/22 13:48:39;;;;;;;41.63;9.13;;;;;;;;;;10496312;28;20384;-64
2023/06/22 13:53:39;;;;;;;53.78;9.48;;;;;;;;;;10487500;28;20020;-60
2023/06/22 13:58:40;;;;;;;52.20;10.05;;;;;;;;;;10481656;28;20025;-62
2023/06/22 14:03:41;;;;;;;33.55;9.95;;;;;;;;;;10491785;28;20063;-62
2023/06/22 14:08:41;;;;;;;22.05;9.63;;;;;;;;;;10486367;28;20036;-62
2023/06/22 14:13:42;;;;;;;25.00;9.80;;;;;;;;;;10489949;28;20102;-61
2023/06/22 14:18:45;;;;;;;22.50;9.35;;;;;;;;;;10495229;28;20090;-59
2023/06/22 14:23:49;;;;;;;18.50;9.35;;;;;;;;;;10468715;28;20052;-60
2023/06/22 14:28:52;;;;;;;14.43;9.05;;;;;;;;;;10494078;28;20032;-59
2023/06/22 14:33:52;;;;;;;16.77;8.65;;;;;;;;;;10494260;28;20048;-59
2023/06/22 14:38:53;;;;;;;16.52;8.80;;;;;;;;;;10494689;28;20093;-62
2023/06/22 14:43:53;;;;;;;15.98;9.13;;;;;;;;;;10494185;28;20024;-62
2023/06/22 14:48:54;;;;;;;14.23;8.73;;;;;;;;;;10494185;28;20059;-59
2023/06/22 14:53:55;;;;;;;18.63;9.07;;;;;;;;;;10494246;28;20039;-59
2023/06/22 14:58:55;;;;;;;21.15;9.68;;;;;;;;;;10494226;28;20028;-62
2023/06/22 15:03:56;;;;;;;17.00;11.00;;;;;;;;;;10490007;28;20036;-63
2023/06/22 15:08:57;;;;;;;24.75;12.02;;;;;;;;;;10458100;28;20027;-58
2023/06/22 15:13:59;;;;;;;17.25;11.23;;;;;;;;;;10461127;28;20438;-60
2023/06/22 15:18:59;;;;;;;21.48;12.55;;;;;;;;;;10494479;28;20043;-59
2023/06/22 15:24:00;;;;;;;33.45;13.15;;;;;;;;;;10494306;28;20032;-60
2023/06/22 15:29:00;;;;;;;28.38;13.50;;;;;;;;;;10494857;28;20016;-59
2023/06/22 15:34:03;;;;;;;19.65;11.98;;;;;;;;;;10483709;28;20044;-58
2023/06/22 15:39:03;;;;;;;26.77;13.55;;;;;;;;;;10490924;28;20029;-60
2023/06/22 15:44:04;;;;;;;24.10;13.02;;;;;;;;;;10491395;28;20023;-58
2023/06/22 15:49:05;;;;;;;20.77;13.27;;;;;;;;;;10491415;28;20028;-58
2023/06/22 15:54:06;;;;;;;25.30;13.02;;;;;;;;;;10491474;28;20025;-62
2023/06/22 15:59:06;;;;;;;23.17;12.48;;;;;;;;;;10491379;28;20032;-59
2023/06/22 16:04:07;;;;;;;19.45;11.65;;;;;;;;;;10488621;28;20025;-58
2023/06/22 16:09:08;;;;;;;24.70;12.32;;;;;;;;;;10454905;28;20237;-61
2023/06/22 16:14:09;;;;;;;17.75;11.77;;;;;;;;;;10454486;28;20086;-59
2023/06/22 16:19:10;;;;;;;19.77;12.15;;;;;;;;;;10454478;28;20040;-59
2023/06/22 16:24:10;;;;;;;22.50;11.38;;;;;;;;;;10459817;28;20016;-59
2023/06/22 16:29:11;;;;;;;14.93;11.93;;;;;;;;;;10476323;28;20021;-61
2023/06/22 16:34:12;;;;;;;24.73;12.75;;;;;;;;;;10454946;28;20374;-59
2023/06/22 16:39:13;;;;;;;18.08;11.85;;;;;;;;;;10457240;28;20406;-59
2023/06/22 16:44:13;;;;;;;18.52;11.02;;;;;;;;;;10471425;28;20056;-61
2023/06/22 16:49:14;;;;;;;17.40;11.68;;;;;;;;;;10485220;28;20115;-60
2023/06/22 16:54:15;;;;;;;22.60;11.80;;;;;;;;;;10465150;28;20377;-60
2023/06/22 16:59:16;;;;;;;21.65;11.07;;;;;;;;;;10480790;28;20032;-63
2023/06/22 17:04:23;;;;;;;15.18;11.07;;;;;;;;;;10467275;28;20032;-59
2023/06/22 17:09:27;;;;;;;21.95;11.68;;;;;;;;;;10466100;28;20036;-59
2023/06/22 17:14:27;;;;;;;17.75;10.43;;;;;;;;;;10475751;28;20078;-58
2023/06/22 17:19:28;;;;;;;13.48;9.90;;;;;;;;;;10489259;28;20078;-59
2023/06/22 17:24:29;;;;;;;21.55;11.75;;;;;;;;;;10488964;28;20472;-60
2023/06/22 17:29:32;;;;;;;18.30;10.35;;;;;;;;;;10496551;28;20467;-60
2023/06/22 17:34:33;;;;;;;13.75;10.25;;;;;;;;;;10488806;28;20052;-58
2023/06/22 17:39:35;;;;;;;17.55;10.45;;;;;;;;;;10488983;28;20047;-59
2023/06/22 17:44:36;;;;;;;15.05;11.10;;;;;;;;;;10489811;28;20082;-58
2023/06/22 17:49:38;;;;;;;24.33;12.38;;;;;;;;;;10488375;28;20090;-58
2023/06/22 17:54:39;;;;;;;19.27;12.98;;;;;;;;;;10488875;28;20033;-59
2023/06/22 17:59:40;;;;;;;17.00;11.55;;;;;;;;;;10480542;28;20043;-58
2023/06/22 18:04:40;;;;;;;16.23;11.30;;;;;;;;;;10493551;28;20089;-58
2023/06/22 18:09:41;;;;;;;18.42;10.60;;;;;;;;;;10465342;28;20037;-58
2023/06/22 18:14:42;;;;;;;15.20;11.65;;;;;;;;;;10479443;28;20031;-59
2023/06/22 18:19:44;;;;;;;13.23;11.15;;;;;;;;;;10494427;28;20040;-65
2023/06/22 18:24:45;;;;;;;13.25;9.77;;;;;;;;;;10466601;28;20040;-58
2023/06/22 18:29:50;;;;;;;14.13;9.57;;;;;;;;;;10482505;28;20075;-59
2023/06/22 18:34:52;;;;;;;11.25;9.20;;;;;;;;;;10486945;28;20075;-58
2023/06/22 18:39:55;;;;;;;18.77;7.53;;;;;;;;;;10480764;28;20045;-62
2023/06/22 18:44:56;;;;;;;15.35;10.05;;;;;;;;;;10483215;28;20059;-59
2023/06/22 18:50:08;;;;;;;11.27;9.00;;;;;;;;;;10477266;28;20035;-62
2023/06/22 18:55:12;;;;;;;10.15;7.75;;;;;;;;;;10477768;28;20480;-60
2023/06/22 19:00:14;;;;;;;13.45;7.90;;;;;;;;;;10482320;28;20028;-58
2023/06/22 19:05:38;;;;;;;14.80;7.93;;;;;;;;;;10489145;28;20029;-59
2023/06/22 19:10:42;;;;;;;11.90;8.32;;;;;;;;;;10488290;28;20094;-64
2023/06/22 19:15:44;;;;;;;10.43;8.73;;;;;;;;;;10493235;28;20476;-64
2023/06/22 19:20:52;;;;;;;15.73;9.10;;;;;;;;;;10492619;28;20021;-62
2023/06/22 19:25:57;;;;;;;24.95;13.32;;;;;;;;;;10483058;28;20035;-62
2023/06/22 19:31:11;;;;;;;40.13;17.73;;;;;;;;;;10488079;28;20128;-62
2023/06/22 19:36:12;;;;;;;37.72;17.35;;;;;;;;;;10486465;28;20121;-60
2023/06/22 19:41:13;;;;;;;43.63;17.02;;;;;;;;;;10490217;28;20043;-61
2023/06/22 19:46:41;;;;;;;28.70;13.13;;;;;;;;;;10484332;28;20039;-58
2023/06/22 19:52:04;;;;;;;37.72;14.13;;;;;;;;;;10473710;28;20568;-59
2023/06/22 19:57:06;;;;;;;31.70;13.23;;;;;;;;;;10465647;28;20096;-61
2023/06/22 20:02:09;;;;;;;31.52;11.65;;;;;;;;;;10448529;28;20028;-67
2023/06/22 20:07:09;;;;;;;27.48;10.77;;;;;;;;;;10473119;28;20060;-62
2023/06/22 20:12:24;;;;;;;29.50;11.23;;;;;;;;;;10469570;28;20028;-66
2023/06/22 20:17:25;;;;;;;34.55;9.95;;;;;;;;;;10465754;28;20028;-66
2023/06/22 20:22:25;;;;;;;21.52;9.77;;;;;;;;;;10478649;28;20037;-66
2023/06/22 20:27:37;;;;;;;22.13;9.95;;;;;;;;;;10475264;28;20041;-64
2023/06/22 20:32:59;;;;;;;32.20;9.48;;;;;;;;;;10472075;28;20588;-64
2023/06/22 20:38:13;;;;;;;17.63;9.05;;;;;;;;;;10489207;28;20108;-62
2023/06/22 20:43:14;;;;;;;19.95;8.95;;;;;;;;;;10485146;28;20365;-63
2023/06/22 20:48:14;;;;;;;24.73;9.05;;;;;;;;;;10481861;28;20037;-60
2023/06/22 20:53:22;;;;;;;15.35;8.65;;;;;;;;;;10468812;28;20496;-60
2023/06/22 20:58:37;;;;;;;22.35;7.53;;;;;;;;;;10460842;28;20409;-58
2023/06/22 21:03:47;;;;;;;14.48;7.88;;;;;;;;;;10447504;28;20117;-58
2023/06/22 21:09:01;;;;;;;18.23;8.38;;;;;;;;;;10476891;28;20016;-59
2023/06/22 21:14:14;;;;;;;14.73;8.02;;;;;;;;;;10463000;28;20032;-58
2023/06/22 21:19:15;;;;;;;17.25;8.40;;;;;;;;;;10485353;28;20036;-57
2023/06/22 21:24:15;;;;;;;15.35;7.43;;;;;;;;;;10488274;28;20021;-59
2023/06/22 21:29:16;;;;;;;14.68;6.93;;;;;;;;;;10486429;28;20127;-58
2023/06/22 21:34:17;;;;;;;22.40;7.30;;;;;;;;;;10489616;28;20044;-58
2023/06/22 21:39:18;;;;;;;23.38;7.45;;;;;;;;;;10496482;28;20032;-57
2023/06/22 21:44:19;;;;;;;29.33;6.72;;;;;;;;;;10491438;28;20490;-58
2023/06/22 21:49:19;;;;;;;29.48;7.68;;;;;;;;;;10492394;28;20036;-58
2023/06/22 21:54:20;;;;;;;27.45;7.95;;;;;;;;;;10493493;28;20423;-58
2023/06/22 21:59:22;;;;;;;24.70;6.88;;;;;;;;;;10491849;28;20388;-58
2023/06/22 22:04:22;;;;;;;13.60;6.35;;;;;;;;;;10492281;28;20411;-58
2023/06/22 22:09:23;;;;;;;16.98;6.68;;;;;;;;;;10502320;28;20035;-57
2023/06/22 22:14:23;;;;;;;23.67;6.28;;;;;;;;;;10499562;28;20039;-58
2023/06/22 22:19:24;;;;;;;22.25;6.70;;;;;;;;;;10490566;28;20021;-58
2023/06/22 22:24:25;;;;;;;15.02;6.05;;;;;;;;;;10494713;28;20469;-58
2023/06/22 22:29:28;;;;;;;11.23;5.63;;;;;;;;;;10496680;28;20510;-59
2023/06/22 22:34:29;;;;;;;16.50;6.40;;;;;;;;;;10494864;28;20047;-58
2023/06/22 22:39:34;;;;;;;12.52;6.22;;;;;;;;;;10492882;28;20498;-60
2023/06/22 22:44:35;;;;;;;15.63;5.88;;;;;;;;;;10495191;28;20028;-57
2023/06/22 22:49:35;;;;;;;9.73;5.82;;;;;;;;;;10491293;28;20151;-59
2023/06/22 22:54:42;;;;;;;22.38;7.18;;;;;;;;;;10494925;28;20032;-58
2023/06/22 22:59:43;;;;;;;11.52;5.50;;;;;;;;;;10493261;28;20431;-61
2023/06/22 23:04:43;;;;;;;11.30;6.03;;;;;;;;;;10495092;28;20082;-58
2023/06/22 23:09:44;;;;;;;12.68;5.10;;;;;;;;;;10493375;28;20029;-61
2023/06/22 23:14:45;;;;;;;10.15;5.70;;;;;;;;;;10492617;28;20098;-59
2023/06/22 23:19:46;;;;;;;10.18;5.97;;;;;;;;;;10492934;28;20040;-58
2023/06/22 23:24:46;;;;;;;9.90;4.97;;;;;;;;;;10494844;28;20138;-60
2023/06/22 23:29:47;;;;;;;11.95;6.13;;;;;;;;;;10494255;28;20086;-59
2023/06/22 23:34:47;;;;;;;8.68;5.47;;;;;;;;;;10497770;28;20039;-59
2023/06/22 23:39:48;;;;;;;8.90;5.45;;;;;;;;;;10497811;28;20020;-62
2023/06/22 23:44:49;;;;;;;7.65;5.22;;;;;;;;;;10493046;28;20044;-62
2023/06/22 23:49:49;;;;;;;13.05;5.10;;;;;;;;;;10492498;28;20066;-62
2023/06/22 23:54:50;;;;;;;11.75;5.13;;;;;;;;;;10490289;28;20471;-61
2023/06/22 23:59:52;;;;;;;10.40;5.13;;;;;;;;;;10490032;28;20518;-61
